Аэропорт
Бухта Провидения (UHMD)

 UHMD / PVS
ЗЦ Хабаровск
Магадан (UHMM)
Магадан (UHMM)
 64.37810, -173.24300  / 72 ft

 UHMD 160500Z 11008G13MPS P1000 OVC011 00/00 Q0998 RMK QBB350 MT OBSC QFE748/0997
 UHMD 151958Z 1520/1603 03006G11MPS 1000 SN BR OVC005 TEMPO 1520/1603 36011G16MPS 0500 SHSN BLSN VV002
uhmd_aip_1605
показать схемы
Название сценария Тип сценария Flight Simulator 9 Flight Simulator X Prepar3D v2 Prepar3D v3 Prepar3D v4 xPlane
uhmd-scenery-fsx_p3d-1411 бесплатный


2018 © VATRUS division